sensor_id;sensor_type;location;lat;lon;timestamp;temperature;humidity
17705;DHT22;8971;52.218;21.304;2023-08-08T11:09:44;21.60;99.90
17705;DHT22;8971;52.218;21.304;2023-08-08T11:12:15;21.60;99.90
17705;DHT22;8971;52.218;21.304;2023-08-08T11:14:42;22.60;99.90
17705;DHT22;8971;52.218;21.304;2023-08-08T11:17:10;21.10;99.90
17705;DHT22;8971;52.218;21.304;2023-08-08T11:19:40;20.80;99.90
17705;DHT22;8971;52.218;21.304;2023-08-08T11:22:10;20.40;99.90
17705;DHT22;8971;52.218;21.304;2023-08-08T11:24:37;19.90;99.90
17705;DHT22;8971;52.218;21.304;2023-08-08T11:27:06;19.50;99.90
17705;DHT22;8971;52.218;21.304;2023-08-08T11:29:34;19.40;99.90
17705;DHT22;8971;52.218;21.304;2023-08-08T11:32:01;19.70;99.90
17705;DHT22;8971;52.218;21.304;2023-08-08T11:34:31;21.20;99.90
17705;DHT22;8971;52.218;21.304;2023-08-08T11:36:59;21.90;99.90
17705;DHT22;8971;52.218;21.304;2023-08-08T11:39:27;20.90;99.90
17705;DHT22;8971;52.218;21.304;2023-08-08T11:41:56;20.40;99.90
17705;DHT22;8971;52.218;21.304;2023-08-08T11:44:24;19.80;99.90
17705;DHT22;8971;52.218;21.304;2023-08-08T11:46:52;20.60;99.90
17705;DHT22;8971;52.218;21.304;2023-08-08T11:49:19;21.30;99.90
17705;DHT22;8971;52.218;21.304;2023-08-08T11:51:47;21.30;99.90
17705;DHT22;8971;52.218;21.304;2023-08-08T11:54:16;21.40;99.90
17705;DHT22;8971;52.218;21.304;2023-08-08T11:56:43;22.50;99.90
17705;DHT22;8971;52.218;21.304;2023-08-08T11:59:11;23.90;99.90
17705;DHT22;8971;52.218;21.304;2023-08-08T12:01:41;22.80;99.90
17705;DHT22;8971;52.218;21.304;2023-08-08T12:04:10;21.70;99.90
17705;DHT22;8971;52.218;21.304;2023-08-08T12:06:39;20.60;99.90
17705;DHT22;8971;52.218;21.304;2023-08-08T12:09:11;20.60;99.90
17705;DHT22;8971;52.218;21.304;2023-08-08T12:11:39;21.20;99.90
17705;DHT22;8971;52.218;21.304;2023-08-08T12:14:08;21.80;99.90
17705;DHT22;8971;52.218;21.304;2023-08-08T12:16:39;21.80;99.90
17705;DHT22;8971;52.218;21.304;2023-08-08T12:19:08;22.60;99.90
17705;DHT22;8971;52.218;21.304;2023-08-08T12:21:36;22.90;99.90
17705;DHT22;8971;52.218;21.304;2023-08-08T12:24:04;22.20;99.90
17705;DHT22;8971;52.218;21.304;2023-08-08T12:26:32;24.10;99.90
17705;DHT22;8971;52.218;21.304;2023-08-08T12:28:59;22.70;99.90
17705;DHT22;8971;52.218;21.304;2023-08-08T12:31:26;21.60;99.90
17705;DHT22;8971;52.218;21.304;2023-08-08T12:33:56;22.20;99.90
17705;DHT22;8971;52.218;21.304;2023-08-08T12:36:23;27.60;99.90
17705;DHT22;8971;52.218;21.304;2023-08-08T12:38:51;29.70;99.90
17705;DHT22;8971;52.218;21.304;2023-08-08T12:41:18;30.40;99.90
17705;DHT22;8971;52.218;21.304;2023-08-08T12:43:45;31.40;99.90
17705;DHT22;8971;52.218;21.304;2023-08-08T12:46:12;30.90;99.40
17705;DHT22;8971;52.218;21.304;2023-08-08T12:48:40;30.00;99.70
17705;DHT22;8971;52.218;21.304;2023-08-08T12:51:08;28.90;99.90
17705;DHT22;8971;52.218;21.304;2023-08-08T12:53:36;26.80;99.90
17705;DHT22;8971;52.218;21.304;2023-08-08T12:56:03;26.80;99.90
17705;DHT22;8971;52.218;21.304;2023-08-08T12:58:31;25.40;99.90
17705;DHT22;8971;52.218;21.304;2023-08-08T13:00:58;22.90;99.90
17705;DHT22;8971;52.218;21.304;2023-08-08T13:03:25;21.20;99.90
17705;DHT22;8971;52.218;21.304;2023-08-08T13:05:52;20.70;99.90
17705;DHT22;8971;52.218;21.304;2023-08-08T13:08:21;20.30;99.90
17705;DHT22;8971;52.218;21.304;2023-08-08T13:10:48;20.40;99.90
17705;DHT22;8971;52.218;21.304;2023-08-08T13:13:16;20.80;99.90
17705;DHT22;8971;52.218;21.304;2023-08-08T13:15:43;22.40;99.90
17705;DHT22;8971;52.218;21.304;2023-08-08T13:18:11;23.40;99.90
17705;DHT22;8971;52.218;21.304;2023-08-08T13:20:39;24.20;99.90
17705;DHT22;8971;52.218;21.304;2023-08-08T13:23:06;26.00;99.90
17705;DHT22;8971;52.218;21.304;2023-08-08T13:25:35;26.30;99.90
17705;DHT22;8971;52.218;21.304;2023-08-08T13:28:03;26.00;99.90
17705;DHT22;8971;52.218;21.304;2023-08-08T13:30:30;24.30;99.90
17705;DHT22;8971;52.218;21.304;2023-08-08T13:32:58;23.40;99.90
17705;DHT22;8971;52.218;21.304;2023-08-08T13:35:26;22.50;99.90
17705;DHT22;8971;52.218;21.304;2023-08-08T13:37:53;22.70;99.90
17705;DHT22;8971;52.218;21.304;2023-08-08T13:40:20;22.50;99.90
17705;DHT22;8971;52.218;21.304;2023-08-08T13:42:49;22.10;99.90
17705;DHT22;8971;52.218;21.304;2023-08-08T13:45:17;21.80;99.90
17705;DHT22;8971;52.218;21.304;2023-08-08T13:47:44;21.40;99.90
17705;DHT22;8971;52.218;21.304;2023-08-08T13:50:13;21.00;99.90
17705;DHT22;8971;52.218;21.304;2023-08-08T13:52:41;20.60;99.90
17705;DHT22;8971;52.218;21.304;2023-08-08T13:55:08;20.20;99.90
17705;DHT22;8971;52.218;21.304;2023-08-08T13:57:36;20.00;99.90
17705;DHT22;8971;52.218;21.304;2023-08-08T14:00:06;19.90;99.90
17705;DHT22;8971;52.218;21.304;2023-08-08T14:02:36;20.00;99.90
17705;DHT22;8971;52.218;21.304;2023-08-08T14:05:04;20.30;99.90
17705;DHT22;8971;52.218;21.304;2023-08-08T14:07:32;20.50;99.90
17705;DHT22;8971;52.218;21.304;2023-08-08T14:10:01;20.80;99.90
17705;DHT22;8971;52.218;21.304;2023-08-08T14:12:28;20.90;99.90
17705;DHT22;8971;52.218;21.304;2023-08-08T14:14:55;21.20;99.90
17705;DHT22;8971;52.218;21.304;2023-08-08T14:17:26;20.90;99.90
17705;DHT22;8971;52.218;21.304;2023-08-08T14:19:53;20.50;99.90
17705;DHT22;8971;52.218;21.304;2023-08-08T14:22:20;20.30;99.90
17705;DHT22;8971;52.218;21.304;2023-08-08T14:24:47;20.20;99.90
17705;DHT22;8971;52.218;21.304;2023-08-08T14:27:15;19.90;99.90
17705;DHT22;8971;52.218;21.304;2023-08-08T14:29:42;19.70;99.90
17705;DHT22;8971;52.218;21.304;2023-08-08T14:32:09;19.50;99.90
17705;DHT22;8971;52.218;21.304;2023-08-08T14:34:39;19.80;99.90
17705;DHT22;8971;52.218;21.304;2023-08-08T14:37:06;19.90;99.90
17705;DHT22;8971;52.218;21.304;2023-08-08T14:39:33;19.60;99.90
17705;DHT22;8971;52.218;21.304;2023-08-08T14:42:01;19.50;99.90
17705;DHT22;8971;52.218;21.304;2023-08-08T14:44:28;19.60;99.90
17705;DHT22;8971;52.218;21.304;2023-08-08T14:46:56;19.80;99.90
17705;DHT22;8971;52.218;21.304;2023-08-08T14:49:23;20.30;99.90
17705;DHT22;8971;52.218;21.304;2023-08-08T14:51:53;20.70;99.90
17705;DHT22;8971;52.218;21.304;2023-08-08T14:54:20;20.90;99.90
17705;DHT22;8971;52.218;21.304;2023-08-08T14:56:47;21.10;99.90
17705;DHT22;8971;52.218;21.304;2023-08-08T14:59:14;21.10;99.90
17705;DHT22;8971;52.218;21.304;2023-08-08T15:01:42;21.50;99.90
17705;DHT22;8971;52.218;21.304;2023-08-08T15:04:12;22.60;99.90
17705;DHT22;8971;52.218;21.304;2023-08-08T15:06:41;24.20;99.90
17705;DHT22;8971;52.218;21.304;2023-08-08T15:09:09;24.80;99.90
17705;DHT22;8971;52.218;21.304;2023-08-08T15:11:40;24.90;99.90
17705;DHT22;8971;52.218;21.304;2023-08-08T15:14:08;24.90;99.90
17705;DHT22;8971;52.218;21.304;2023-08-08T15:16:35;25.30;99.90
17705;DHT22;8971;52.218;21.304;2023-08-08T15:19:03;24.20;99.90
17705;DHT22;8971;52.218;21.304;2023-08-08T15:21:31;23.70;99.90
17705;DHT22;8971;52.218;21.304;2023-08-08T15:23:59;24.00;99.90
17705;DHT22;8971;52.218;21.304;2023-08-08T15:26:28;24.40;99.90
17705;DHT22;8971;52.218;21.304;2023-08-08T15:28:58;24.10;99.90
17705;DHT22;8971;52.218;21.304;2023-08-08T15:31:26;23.40;99.90
17705;DHT22;8971;52.218;21.304;2023-08-08T15:33:53;23.50;99.90
17705;DHT22;8971;52.218;21.304;2023-08-08T15:36:21;23.40;99.90
17705;DHT22;8971;52.218;21.304;2023-08-08T15:38:49;22.90;99.90
17705;DHT22;8971;52.218;21.304;2023-08-08T15:41:16;22.30;99.90
17705;DHT22;8971;52.218;21.304;2023-08-08T15:43:45;21.90;99.90
17705;DHT22;8971;52.218;21.304;2023-08-08T15:46:12;21.70;99.90
17705;DHT22;8971;52.218;21.304;2023-08-08T15:48:40;21.30;99.90
17705;DHT22;8971;52.218;21.304;2023-08-08T15:51:07;21.00;99.90
17705;DHT22;8971;52.218;21.304;2023-08-08T15:53:34;20.60;99.90
17705;DHT22;8971;52.218;21.304;2023-08-08T15:56:02;20.50;99.90
17705;DHT22;8971;52.218;21.304;2023-08-08T15:58:29;20.30;99.90
17705;DHT22;8971;52.218;21.304;2023-08-08T16:00:58;20.20;99.90
17705;DHT22;8971;52.218;21.304;2023-08-08T16:03:25;20.20;99.90
17705;DHT22;8971;52.218;21.304;2023-08-08T16:05:53;20.20;99.90
17705;DHT22;8971;52.218;21.304;2023-08-08T16:08:20;20.10;99.90
17705;DHT22;8971;52.218;21.304;2023-08-08T16:10:48;20.10;99.90
17705;DHT22;8971;52.218;21.304;2023-08-08T16:13:15;19.80;99.90
17705;DHT22;8971;52.218;21.304;2023-08-08T16:15:42;19.90;99.90
17705;DHT22;8971;52.218;21.304;2023-08-08T16:18:11;19.90;99.90
17705;DHT22;8971;52.218;21.304;2023-08-08T16:20:39;19.70;99.90
17705;DHT22;8971;52.218;21.304;2023-08-08T16:23:06;19.70;99.90
17705;DHT22;8971;52.218;21.304;2023-08-08T16:25:33;19.70;99.90
17705;DHT22;8971;52.218;21.304;2023-08-08T16:28:00;19.60;99.90
17705;DHT22;8971;52.218;21.304;2023-08-08T16:30:28;19.60;99.90
17705;DHT22;8971;52.218;21.304;2023-08-08T16:32:56;19.50;99.90
17705;DHT22;8971;52.218;21.304;2023-08-08T16:35:24;19.30;99.90
17705;DHT22;8971;52.218;21.304;2023-08-08T16:37:52;19.10;99.90
17705;DHT22;8971;52.218;21.304;2023-08-08T16:40:19;19.00;99.90
17705;DHT22;8971;52.218;21.304;2023-08-08T16:42:46;19.00;99.90
17705;DHT22;8971;52.218;21.304;2023-08-08T16:45:14;18.90;99.90
17705;DHT22;8971;52.218;21.304;2023-08-08T16:47:41;18.90;99.90
17705;DHT22;8971;52.218;21.304;2023-08-08T16:50:09;18.80;99.90
17705;DHT22;8971;52.218;21.304;2023-08-08T16:52:38;18.70;99.90
17705;DHT22;8971;52.218;21.304;2023-08-08T16:55:06;18.60;99.90
17705;DHT22;8971;52.218;21.304;2023-08-08T16:57:36;18.50;99.90
17705;DHT22;8971;52.218;21.304;2023-08-08T17:00:04;18.50;99.90
17705;DHT22;8971;52.218;21.304;2023-08-08T17:02:34;18.50;99.90
17705;DHT22;8971;52.218;21.304;2023-08-08T17:05:01;18.50;99.90
17705;DHT22;8971;52.218;21.304;2023-08-08T17:07:29;18.50;99.90
17705;DHT22;8971;52.218;21.304;2023-08-08T17:09:58;18.50;99.90
17705;DHT22;8971;52.218;21.304;2023-08-08T17:12:25;18.50;99.90
17705;DHT22;8971;52.218;21.304;2023-08-08T17:14:53;18.50;99.90
17705;DHT22;8971;52.218;21.304;2023-08-08T17:17:21;18.50;99.90
17705;DHT22;8971;52.218;21.304;2023-08-08T17:19:48;18.50;99.90
